createdAt,value
2022-09-25T00:00:02.651Z,71
2022-09-25T00:20:02.518Z,71
2022-09-25T00:40:02.985Z,71
2022-09-25T01:00:02.419Z,71
2022-09-25T01:20:03.091Z,71
2022-09-25T01:40:02.485Z,71
2022-09-25T02:00:03.052Z,71
2022-09-25T02:20:02.485Z,71
2022-09-25T02:40:02.883Z,72
2022-09-25T03:00:03.243Z,71
2022-09-25T03:20:02.949Z,71
2022-09-25T03:40:02.221Z,71
2022-09-25T04:00:02.531Z,71
2022-09-25T04:20:03.093Z,72
2022-09-25T04:40:02.274Z,72
2022-09-25T05:00:02.519Z,72
2022-09-25T05:20:02.889Z,72
2022-09-25T05:40:02.330Z,72
2022-09-25T06:00:02.657Z,73
2022-09-25T06:20:03.107Z,73
2022-09-25T06:40:02.584Z,73
2022-09-25T07:00:03.000Z,71
2022-09-25T07:20:02.395Z,70
2022-09-25T07:40:02.696Z,68
2022-09-25T08:00:03.357Z,67
2022-09-25T08:20:03.004Z,66
2022-09-25T08:40:02.304Z,63
2022-09-25T09:00:03.244Z,58
2022-09-25T09:20:02.894Z,54
2022-09-25T09:40:02.230Z,52
2022-09-25T10:00:05.857Z,49
2022-09-25T10:20:02.907Z,50
2022-09-25T10:40:02.527Z,48
2022-09-25T11:00:02.929Z,48
2022-09-25T11:20:02.355Z,50
2022-09-25T11:40:03.385Z,50
2022-09-25T12:00:02.965Z,50
2022-09-25T12:20:02.964Z,50
2022-09-25T12:40:02.363Z,50
2022-09-25T13:00:03.090Z,52
2022-09-25T13:20:02.978Z,52
2022-09-25T13:40:02.684Z,53
2022-09-25T14:00:03.491Z,51
2022-09-25T14:20:03.313Z,50
2022-09-25T14:40:03.016Z,51
2022-09-25T15:00:02.633Z,51
2022-09-25T15:20:02.582Z,51
2022-09-25T15:40:02.946Z,51
2022-09-25T16:00:02.576Z,53
2022-09-25T16:20:03.273Z,55
2022-09-25T16:40:02.714Z,57
2022-09-25T17:00:03.168Z,57
2022-09-25T17:20:08.000Z,58
2022-09-25T17:40:03.553Z,60
2022-09-25T18:00:05.481Z,62
2022-09-25T18:20:03.525Z,63
2022-09-25T18:40:03.161Z,64
2022-09-25T19:00:03.102Z,63
2022-09-25T19:20:03.824Z,64
2022-09-25T19:40:09.226Z,64
2022-09-25T20:00:04.152Z,66
2022-09-25T20:20:03.602Z,67
2022-09-25T20:40:03.088Z,68
2022-09-25T21:00:02.653Z,69
2022-09-25T21:20:02.362Z,69
2022-09-25T21:40:05.785Z,70
2022-09-25T22:00:03.535Z,71
2022-09-25T22:20:05.799Z,72
2022-09-25T22:40:03.080Z,73
2022-09-25T23:00:02.770Z,74
2022-09-25T23:20:03.379Z,74
2022-09-25T23:40:02.737Z,74
